createdAt,value
2022-12-29T00:00:13.124Z,10.75
2022-12-29T00:02:39.969Z,10.73
2022-12-29T00:05:07.003Z,10.58
2022-12-29T00:07:33.619Z,10.60
2022-12-29T00:10:00.152Z,10.52
2022-12-29T00:12:46.616Z,10.55
2022-12-29T00:15:31.816Z,10.42
2022-12-29T00:17:58.431Z,10.40
2022-12-29T00:20:43.697Z,10.42
2022-12-29T00:23:28.998Z,10.36
2022-12-29T00:26:14.616Z,10.21
2022-12-29T00:28:59.705Z,10.15
2022-12-29T00:31:44.649Z,10.19
2022-12-29T00:34:31.207Z,10.19
2022-12-29T00:36:58.149Z,10.29
2022-12-29T00:39:43.195Z,10.05
2022-12-29T00:42:29.232Z,10.27
2022-12-29T00:44:55.793Z,10.02
2022-12-29T00:47:22.344Z,10.16
2022-12-29T00:49:48.864Z,10.11
2022-12-29T00:52:15.388Z,10.16
2022-12-29T00:54:42.678Z,10.15
2022-12-29T00:57:10.723Z,10.20
2022-12-29T00:59:38.285Z,10.17
2022-12-29T01:02:04.938Z,10.04
2022-12-29T01:04:31.565Z,10.13
2022-12-29T01:06:58.126Z,10.20
2022-12-29T01:09:45.707Z,10.12
2022-12-29T01:12:12.833Z,10.06
2022-12-29T01:14:39.629Z,10.01
2022-12-29T01:17:07.077Z,10.20
2022-12-29T01:19:34.045Z,10.10
2022-12-29T01:22:00.588Z,10.17
2022-12-29T01:24:27.417Z,10.23
2022-12-29T01:26:55.475Z,10.25
2022-12-29T01:29:22.883Z,10.29
2022-12-29T01:31:50.850Z,10.20
2022-12-29T01:34:18.080Z,10.17
2022-12-29T01:36:47.019Z,10.07
2022-12-29T01:39:14.395Z,10.05
2022-12-29T01:41:41.134Z,10.00
2022-12-29T01:45:02.221Z,10.18
2022-12-29T01:47:34.854Z,10.13
2022-12-29T01:50:10.271Z,10.04
2022-12-29T01:52:41.797Z,9.81
2022-12-29T01:55:12.037Z,9.88
2022-12-29T01:57:42.269Z,9.92
2022-12-29T02:00:12.784Z,10.23
2022-12-29T02:02:40.389Z,9.91
2022-12-29T02:05:34.904Z,10.31
2022-12-29T02:08:02.756Z,10.37
2022-12-29T02:10:32.438Z,10.28
2022-12-29T02:12:58.978Z,10.14
2022-12-29T02:15:37.147Z,10.30
2022-12-29T02:18:22.079Z,10.36
2022-12-29T02:20:56.868Z,10.33
2022-12-29T02:23:57.685Z,10.30
2022-12-29T02:27:07.763Z,10.37
2022-12-29T02:30:06.609Z,10.29
2022-12-29T02:32:47.507Z,10.43
2022-12-29T02:35:38.358Z,10.25
2022-12-29T02:38:15.303Z,10.19
2022-12-29T02:40:50.315Z,10.27
2022-12-29T02:43:25.639Z,10.41
2022-12-29T02:45:59.601Z,10.19
2022-12-29T02:48:53.749Z,10.24
2022-12-29T02:51:27.475Z,10.23
2022-12-29T02:54:14.090Z,10.24
2022-12-29T02:56:40.785Z,10.03
2022-12-29T02:59:08.503Z,10.06
2022-12-29T03:02:18.117Z,10.04
2022-12-29T03:04:53.597Z,9.98
2022-12-29T03:07:53.567Z,10.11
2022-12-29T03:10:55.559Z,10.14
2022-12-29T03:13:45.647Z,9.95
2022-12-29T03:16:24.168Z,9.94
2022-12-29T03:19:03.413Z,9.85
2022-12-29T03:22:10.712Z,9.76
2022-12-29T03:24:41.929Z,9.78
2022-12-29T03:27:12.132Z,9.76
2022-12-29T03:29:43.825Z,9.62
2022-12-29T03:32:13.418Z,9.70
2022-12-29T03:34:40.654Z,9.71
2022-12-29T03:37:20.152Z,9.75
2022-12-29T03:39:46.732Z,9.98
2022-12-29T03:42:21.508Z,9.94
2022-12-29T03:44:48.377Z,9.86
2022-12-29T03:47:16.161Z,9.62
2022-12-29T03:49:43.728Z,9.78
2022-12-29T03:52:10.313Z,9.85
2022-12-29T03:54:36.856Z,9.76
2022-12-29T03:57:03.445Z,9.96
2022-12-29T03:59:30.006Z,10.02
2022-12-29T04:01:56.549Z,9.84
2022-12-29T04:04:25.562Z,10.16
2022-12-29T04:06:52.083Z,10.12
2022-12-29T04:09:18.669Z,9.99
2022-12-29T04:11:45.188Z,9.93
2022-12-29T04:14:11.732Z,9.78
2022-12-29T04:16:39.823Z,9.95
2022-12-29T04:19:08.283Z,10.03
2022-12-29T04:21:34.906Z,10.25
2022-12-29T04:24:01.443Z,10.20
2022-12-29T04:26:28.054Z,10.37
2022-12-29T04:28:57.023Z,10.36
2022-12-29T04:31:23.669Z,10.67
2022-12-29T04:33:50.197Z,10.57
2022-12-29T04:36:16.966Z,10.40
2022-12-29T04:38:45.366Z,10.49
2022-12-29T04:41:11.874Z,10.50
2022-12-29T04:43:38.391Z,10.45
2022-12-29T04:46:04.986Z,10.69
2022-12-29T04:48:31.495Z,10.71
2022-12-29T04:50:58.229Z,10.80
2022-12-29T04:53:24.814Z,10.92
2022-12-29T04:55:52.709Z,10.88
2022-12-29T04:58:22.795Z,10.97
2022-12-29T05:00:51.503Z,10.72
2022-12-29T05:03:18.529Z,10.91
2022-12-29T05:05:45.230Z,10.86
2022-12-29T05:08:11.796Z,10.66
2022-12-29T05:10:38.448Z,10.55
2022-12-29T05:13:05.307Z,10.72
2022-12-29T05:15:31.891Z,10.67
2022-12-29T05:18:01.211Z,10.71
2022-12-29T05:20:30.028Z,10.60
2022-12-29T05:22:56.536Z,10.52
2022-12-29T05:25:23.055Z,10.70
2022-12-29T05:27:49.532Z,10.52
2022-12-29T05:30:16.160Z,10.63
2022-12-29T05:32:43.697Z,10.72
2022-12-29T05:35:10.214Z,10.53
2022-12-29T05:37:36.757Z,10.58
2022-12-29T05:40:03.934Z,10.60
2022-12-29T05:42:30.456Z,10.26
2022-12-29T05:44:57.007Z,10.43
2022-12-29T05:47:23.529Z,10.50
2022-12-29T05:49:50.052Z,10.39
2022-12-29T05:52:16.520Z,10.30
2022-12-29T05:54:43.788Z,10.57
2022-12-29T05:57:10.947Z,10.34
2022-12-29T05:59:37.548Z,10.35
2022-12-29T06:02:04.184Z,10.44
2022-12-29T06:04:31.379Z,10.41
2022-12-29T06:06:57.865Z,10.41
2022-12-29T06:09:24.407Z,10.40
2022-12-29T06:11:51.042Z,10.38
2022-12-29T06:14:17.529Z,10.33
2022-12-29T06:16:44.133Z,10.36
2022-12-29T06:19:10.753Z,10.49
2022-12-29T06:21:38.208Z,10.35
2022-12-29T06:24:05.827Z,10.29
2022-12-29T06:26:32.323Z,10.36
2022-12-29T06:28:58.795Z,10.29
2022-12-29T06:31:25.390Z,10.40
2022-12-29T06:33:51.965Z,10.37
2022-12-29T06:36:18.531Z,10.31
2022-12-29T06:38:45.102Z,10.59
2022-12-29T06:41:11.686Z,10.32
2022-12-29T06:43:39.379Z,10.30
2022-12-29T06:46:06.574Z,10.30
2022-12-29T06:48:36.082Z,10.23
2022-12-29T06:51:03.288Z,10.03
2022-12-29T06:53:30.556Z,10.14
2022-12-29T06:55:57.729Z,10.29
2022-12-29T06:58:24.759Z,9.95
2022-12-29T07:00:51.363Z,10.25
2022-12-29T07:03:17.967Z,10.35
2022-12-29T07:05:44.527Z,10.18
2022-12-29T07:08:11.099Z,10.15
2022-12-29T07:10:37.653Z,9.96
2022-12-29T07:13:08.792Z,9.86
2022-12-29T07:15:37.367Z,10.02
2022-12-29T07:18:07.371Z,9.89
2022-12-29T07:20:36.090Z,9.65
2022-12-29T07:23:05.569Z,9.75
2022-12-29T07:25:32.228Z,9.90
2022-12-29T07:27:58.729Z,9.97
2022-12-29T07:30:25.259Z,9.76
2022-12-29T07:32:51.739Z,9.85
2022-12-29T07:35:18.355Z,10.13
2022-12-29T07:37:45.105Z,9.99
2022-12-29T07:40:12.348Z,9.86
2022-12-29T07:42:38.874Z,9.97
2022-12-29T07:45:10.279Z,9.96
2022-12-29T07:47:39.758Z,9.96
2022-12-29T07:50:09.444Z,9.77
2022-12-29T07:52:38.506Z,9.94
2022-12-29T07:55:08.948Z,9.79
2022-12-29T07:57:38.373Z,9.93
2022-12-29T08:00:08.706Z,9.90
2022-12-29T08:02:38.357Z,9.93
2022-12-29T08:05:08.016Z,9.84
2022-12-29T08:07:35.625Z,9.93
2022-12-29T08:10:02.540Z,9.97
2022-12-29T08:12:29.140Z,10.10
2022-12-29T08:14:58.828Z,9.96
2022-12-29T08:17:25.360Z,9.84
2022-12-29T08:19:51.867Z,9.85
2022-12-29T08:22:18.358Z,9.94
2022-12-29T08:24:44.885Z,9.69
2022-12-29T08:27:18.004Z,9.83
2022-12-29T08:29:46.620Z,9.83
2022-12-29T08:32:13.377Z,9.96
2022-12-29T08:34:39.891Z,9.90
2022-12-29T08:37:07.143Z,9.88
2022-12-29T08:39:36.105Z,9.95
2022-12-29T08:42:02.868Z,10.02
2022-12-29T08:44:29.388Z,9.94
2022-12-29T08:46:55.928Z,9.91
2022-12-29T08:49:22.433Z,9.99
2022-12-29T08:51:49.003Z,9.88
2022-12-29T08:54:15.533Z,10.01
2022-12-29T08:56:42.065Z,9.84
2022-12-29T08:59:08.750Z,9.91
2022-12-29T09:01:41.460Z,10.07
2022-12-29T09:04:17.678Z,9.97
2022-12-29T09:06:45.933Z,10.18
2022-12-29T09:09:13.215Z,10.06
2022-12-29T09:11:39.724Z,9.96
2022-12-29T09:14:08.879Z,10.15
2022-12-29T09:16:39.804Z,10.13
2022-12-29T09:19:08.961Z,10.32
2022-12-29T09:21:48.494Z,10.07
2022-12-29T09:24:14.982Z,10.14
2022-12-29T09:26:46.857Z,10.11
2022-12-29T09:29:13.639Z,10.43
2022-12-29T09:31:40.293Z,10.45
2022-12-29T09:34:06.946Z,10.48
2022-12-29T09:36:40.823Z,10.26
2022-12-29T09:39:07.611Z,10.05
2022-12-29T09:41:48.971Z,10.50
2022-12-29T09:44:32.517Z,10.51
2022-12-29T09:47:01.619Z,10.34
2022-12-29T09:49:37.965Z,10.35
2022-12-29T09:52:12.332Z,10.27
2022-12-29T09:55:02.870Z,10.21
2022-12-29T09:57:41.941Z,10.23
2022-12-29T10:00:20.352Z,10.31
2022-12-29T10:02:53.381Z,10.33
2022-12-29T10:05:46.844Z,10.44
2022-12-29T10:08:36.351Z,10.50
2022-12-29T10:11:17.866Z,10.44
2022-12-29T10:14:10.924Z,10.52
2022-12-29T10:16:48.937Z,10.49
2022-12-29T10:19:42.764Z,10.78
2022-12-29T10:22:24.657Z,10.67
2022-12-29T10:24:54.411Z,10.88
2022-12-29T10:27:21.121Z,10.85
2022-12-29T10:29:58.963Z,11.03
2022-12-29T10:32:28.460Z,11.29
2022-12-29T10:34:59.879Z,11.23
2022-12-29T10:37:44.266Z,11.42
2022-12-29T10:40:20.979Z,11.47
2022-12-29T10:42:53.484Z,11.33
2022-12-29T10:45:25.014Z,11.60
2022-12-29T10:48:00.612Z,11.52
2022-12-29T10:50:30.095Z,11.69
2022-12-29T10:53:01.589Z,11.73
2022-12-29T10:55:37.178Z,11.54
2022-12-29T10:58:12.582Z,11.83
2022-12-29T11:00:39.256Z,11.84
2022-12-29T11:03:29.462Z,11.96
2022-12-29T11:06:06.696Z,12.07
2022-12-29T11:08:49.351Z,11.88
2022-12-29T11:11:43.487Z,11.79
2022-12-29T11:14:30.624Z,11.87
2022-12-29T11:16:59.801Z,11.75
2022-12-29T11:19:29.222Z,11.91
2022-12-29T11:21:56.374Z,11.75
2022-12-29T11:24:28.436Z,11.95
2022-12-29T11:27:09.321Z,11.99
2022-12-29T11:29:40.876Z,11.89
2022-12-29T11:32:28.986Z,11.88
2022-12-29T11:34:58.812Z,11.64
2022-12-29T11:37:32.379Z,11.49
2022-12-29T11:40:20.689Z,11.31
2022-12-29T11:42:58.878Z,11.32
2022-12-29T11:45:37.804Z,11.34
2022-12-29T11:48:10.088Z,11.37
2022-12-29T11:50:42.578Z,11.31
2022-12-29T11:53:23.835Z,11.64
2022-12-29T11:56:03.545Z,11.48
2022-12-29T11:58:33.548Z,11.03
2022-12-29T12:01:45.244Z,11.26
2022-12-29T12:04:19.882Z,11.29
2022-12-29T12:07:15.440Z,11.18
2022-12-29T12:10:06.644Z,11.05
2022-12-29T12:12:37.497Z,10.86
2022-12-29T12:15:07.466Z,10.64
2022-12-29T12:17:46.249Z,10.78
2022-12-29T12:20:23.084Z,10.82
2022-12-29T12:23:19.925Z,10.75
2022-12-29T12:25:52.344Z,10.73
2022-12-29T12:28:30.443Z,10.73
2022-12-29T12:31:02.906Z,10.86
2022-12-29T12:33:39.274Z,10.83
2022-12-29T12:36:08.857Z,10.84
2022-12-29T12:38:54.954Z,10.73
2022-12-29T12:41:27.458Z,10.58
2022-12-29T12:44:40.452Z,10.33
2022-12-29T12:47:15.895Z,10.58
2022-12-29T12:50:16.743Z,10.80
2022-12-29T12:53:01.302Z,10.98
2022-12-29T12:55:42.521Z,10.95
2022-12-29T12:58:28.072Z,11.00
2022-12-29T13:00:54.515Z,11.09
2022-12-29T13:04:03.157Z,11.07
2022-12-29T13:07:11.696Z,11.00
2022-12-29T13:10:03.391Z,11.06
2022-12-29T13:12:53.124Z,11.06
2022-12-29T13:15:57.009Z,10.96
2022-12-29T13:18:45.979Z,11.13
2022-12-29T13:21:31.096Z,10.99
2022-12-29T13:23:57.561Z,10.84
2022-12-29T13:27:00.067Z,10.71
2022-12-29T13:29:51.506Z,10.83
2022-12-29T13:32:33.634Z,10.81
2022-12-29T13:35:21.450Z,10.60
2022-12-29T13:37:59.966Z,10.49
2022-12-29T13:40:29.872Z,10.77
2022-12-29T13:42:59.517Z,10.57
2022-12-29T13:45:30.666Z,10.64
2022-12-29T13:48:18.107Z,10.55
2022-12-29T13:50:49.515Z,10.53
2022-12-29T13:53:34.011Z,10.32
2022-12-29T13:56:09.596Z,10.34
2022-12-29T13:58:55.084Z,10.13
2022-12-29T14:01:51.255Z,9.90
2022-12-29T14:04:27.370Z,9.76
2022-12-29T14:07:04.177Z,9.64
2022-12-29T14:10:03.168Z,9.53
2022-12-29T14:12:38.892Z,9.48
2022-12-29T14:15:11.476Z,9.43
2022-12-29T14:17:42.191Z,9.35
2022-12-29T14:20:24.074Z,9.21
2022-12-29T14:23:04.753Z,8.83
2022-12-29T14:26:05.210Z,9.26
2022-12-29T14:28:36.413Z,9.24
2022-12-29T14:31:05.010Z,9.13
2022-12-29T14:33:33.646Z,9.11
2022-12-29T14:36:21.768Z,9.09
2022-12-29T14:38:49.149Z,9.08
2022-12-29T14:41:44.698Z,9.09
2022-12-29T14:44:20.450Z,8.97
2022-12-29T14:46:56.265Z,8.71
2022-12-29T14:49:26.476Z,8.79
2022-12-29T14:52:08.457Z,9.23
2022-12-29T14:54:41.800Z,9.29
2022-12-29T14:57:19.524Z,9.26
2022-12-29T14:59:47.207Z,9.04
2022-12-29T15:02:20.836Z,9.12
2022-12-29T15:04:48.114Z,9.21
2022-12-29T15:07:15.487Z,9.13
2022-12-29T15:09:52.346Z,9.16
2022-12-29T15:12:50.122Z,9.30
2022-12-29T15:15:22.662Z,9.27
2022-12-29T15:17:49.256Z,9.29
2022-12-29T15:20:32.319Z,9.26
2022-12-29T15:23:04.186Z,9.35
2022-12-29T15:25:31.718Z,9.12
2022-12-29T15:28:05.518Z,9.25
2022-12-29T15:30:33.704Z,9.04
2022-12-29T15:33:00.325Z,9.20
2022-12-29T15:35:31.678Z,9.18
2022-12-29T15:37:59.786Z,8.90
2022-12-29T15:40:32.147Z,8.95
2022-12-29T15:43:23.589Z,9.04
2022-12-29T15:45:51.716Z,8.88
2022-12-29T15:48:25.656Z,8.82
2022-12-29T15:50:52.987Z,8.71
2022-12-29T15:53:29.362Z,8.77
2022-12-29T15:56:09.750Z,8.86
2022-12-29T15:58:49.613Z,8.75
2022-12-29T16:01:40.959Z,8.79
2022-12-29T16:04:11.227Z,8.93
2022-12-29T16:06:54.976Z,9.14
2022-12-29T16:09:40.742Z,9.04
2022-12-29T16:12:19.798Z,8.80
2022-12-29T16:15:01.857Z,8.94
2022-12-29T16:17:30.774Z,8.89
2022-12-29T16:19:57.307Z,8.92
2022-12-29T16:22:33.567Z,8.93
2022-12-29T16:25:05.149Z,8.94
2022-12-29T16:27:43.279Z,8.89
2022-12-29T16:30:31.057Z,8.89
2022-12-29T16:33:02.226Z,8.97
2022-12-29T16:35:47.706Z,8.79
2022-12-29T16:38:22.739Z,8.66
2022-12-29T16:41:03.068Z,8.76
2022-12-29T16:43:31.306Z,8.57
2022-12-29T16:46:00.599Z,8.70
2022-12-29T16:48:46.839Z,8.75
2022-12-29T16:51:19.453Z,8.59
2022-12-29T16:53:53.339Z,8.80
2022-12-29T16:56:26.500Z,8.67
2022-12-29T16:59:04.315Z,8.53
2022-12-29T17:01:31.109Z,8.76
2022-12-29T17:04:09.728Z,8.69
2022-12-29T17:06:36.381Z,8.65
2022-12-29T17:09:16.619Z,8.64
2022-12-29T17:12:01.247Z,8.56
2022-12-29T17:14:39.597Z,8.62
2022-12-29T17:17:12.694Z,8.56
2022-12-29T17:19:47.494Z,8.71
2022-12-29T17:22:18.952Z,8.70
2022-12-29T17:24:45.497Z,8.71
2022-12-29T17:27:23.561Z,8.70
2022-12-29T17:29:51.901Z,8.44
2022-12-29T17:32:18.546Z,8.50
2022-12-29T17:34:45.080Z,8.45
2022-12-29T17:37:23.763Z,8.63
2022-12-29T17:39:50.702Z,8.42
2022-12-29T17:42:19.569Z,8.75
2022-12-29T17:44:46.321Z,8.77
2022-12-29T17:47:16.403Z,8.74
2022-12-29T17:49:46.383Z,8.55
2022-12-29T17:52:17.514Z,8.62
2022-12-29T17:54:53.373Z,8.65
2022-12-29T17:57:21.409Z,8.71
2022-12-29T17:59:48.279Z,8.64
2022-12-29T18:02:27.319Z,8.87
2022-12-29T18:04:54.075Z,8.86
2022-12-29T18:07:21.355Z,8.78
2022-12-29T18:09:47.867Z,8.79
2022-12-29T18:15:36.694Z,8.80
2022-12-29T18:18:18.914Z,8.84
2022-12-29T18:20:47.476Z,8.88
2022-12-29T18:23:24.143Z,8.68
2022-12-29T18:25:59.406Z,8.87
2022-12-29T18:28:29.893Z,8.79
2022-12-29T18:30:58.468Z,9.14
2022-12-29T18:33:26.838Z,8.97
2022-12-29T18:36:02.393Z,8.75
2022-12-29T18:38:29.885Z,9.05
2022-12-29T18:40:57.494Z,9.11
2022-12-29T18:43:24.919Z,9.11
2022-12-29T18:45:51.807Z,8.99
2022-12-29T18:48:20.299Z,9.07
2022-12-29T18:51:17.579Z,8.67
2022-12-29T18:53:45.314Z,8.81
2022-12-29T18:56:12.299Z,8.94
2022-12-29T18:58:42.179Z,8.85
2022-12-29T19:01:26.075Z,9.04
2022-12-29T19:03:53.063Z,9.09
2022-12-29T19:06:24.117Z,9.00
2022-12-29T19:08:55.859Z,8.84
2022-12-29T19:11:22.574Z,9.01
2022-12-29T19:13:49.085Z,9.09
2022-12-29T19:16:20.677Z,9.17
2022-12-29T19:18:58.214Z,9.12
2022-12-29T19:21:33.873Z,9.04
2022-12-29T19:24:00.348Z,9.10
2022-12-29T19:26:34.342Z,9.00
2022-12-29T19:29:00.896Z,8.97
2022-12-29T19:31:34.036Z,8.87
2022-12-29T19:34:51.281Z,8.55
2022-12-29T19:37:21.267Z,8.70
2022-12-29T19:39:47.841Z,8.60
2022-12-29T19:42:52.634Z,8.54
2022-12-29T19:45:20.533Z,8.86
2022-12-29T19:47:47.144Z,9.10
2022-12-29T19:50:15.922Z,9.00
2022-12-29T19:52:43.602Z,8.79
2022-12-29T19:55:15.695Z,8.88
2022-12-29T19:57:42.912Z,8.81
2022-12-29T20:00:13.853Z,8.80
2022-12-29T20:02:43.670Z,8.93
2022-12-29T20:05:13.320Z,8.78
2022-12-29T20:07:39.913Z,8.78
2022-12-29T20:10:08.071Z,8.91
2022-12-29T20:12:36.607Z,8.83
2022-12-29T20:15:04.209Z,9.01
2022-12-29T20:18:02.465Z,8.89
2022-12-29T20:20:17.264Z,8.81
2022-12-29T20:22:43.808Z,9.00
2022-12-29T20:28:01.126Z,8.91
2022-12-29T20:30:27.626Z,8.94
2022-12-29T20:32:54.156Z,9.11
2022-12-29T20:35:20.783Z,9.08
2022-12-29T20:37:47.360Z,9.00
2022-12-29T20:40:13.857Z,8.91
2022-12-29T20:42:42.487Z,8.86
2022-12-29T20:45:09.978Z,8.81
2022-12-29T20:47:37.075Z,8.80
2022-12-29T20:50:03.818Z,8.72
2022-12-29T20:52:30.314Z,8.71
2022-12-29T20:54:56.844Z,8.87
2022-12-29T20:57:23.385Z,8.98
2022-12-29T20:59:49.904Z,8.97
2022-12-29T21:02:21.443Z,9.07
2022-12-29T21:05:22.675Z,8.77
2022-12-29T21:07:37.321Z,8.91
2022-12-29T21:10:04.185Z,8.74
2022-12-29T21:12:30.751Z,8.84
2022-12-29T21:14:57.319Z,8.86
2022-12-29T21:17:23.873Z,8.87
2022-12-29T21:19:50.421Z,8.77
2022-12-29T21:22:17.033Z,8.52
2022-12-29T21:24:43.566Z,8.78
2022-12-29T21:27:12.134Z,8.63
2022-12-29T21:29:38.650Z,8.58
2022-12-29T21:32:06.595Z,8.53
2022-12-29T21:34:51.466Z,8.30
2022-12-29T21:37:23.398Z,8.63
2022-12-29T21:39:50.313Z,8.60
2022-12-29T21:42:16.917Z,8.70
2022-12-29T21:45:02.061Z,8.72
2022-12-29T21:47:48.531Z,8.78
2022-12-29T21:50:15.078Z,8.61
2022-12-29T21:52:43.641Z,8.61
2022-12-29T21:55:16.299Z,8.56
2022-12-29T21:58:02.288Z,8.63
2022-12-29T22:00:47.254Z,8.46
2022-12-29T22:03:35.412Z,8.52
2022-12-29T22:06:20.761Z,8.37
2022-12-29T22:09:05.559Z,8.28
2022-12-29T22:11:51.022Z,8.29
2022-12-29T22:14:17.630Z,8.34
2022-12-29T22:16:47.157Z,8.20
2022-12-29T22:19:16.010Z,8.26
2022-12-29T22:21:45.434Z,8.15
2022-12-29T22:24:12.447Z,8.24
2022-12-29T22:26:38.967Z,8.15
2022-12-29T22:29:05.844Z,8.20
2022-12-29T22:31:33.973Z,8.20
2022-12-29T22:34:02.708Z,8.22
2022-12-29T22:36:30.529Z,8.22
2022-12-29T22:38:57.361Z,8.17
2022-12-29T22:41:24.293Z,8.21
2022-12-29T22:43:51.214Z,8.09
2022-12-29T22:46:18.175Z,7.93
2022-12-29T22:48:47.475Z,7.69
2022-12-29T22:51:15.948Z,7.38
2022-12-29T22:53:42.673Z,7.38
2022-12-29T22:56:12.257Z,7.40
2022-12-29T22:58:43.831Z,7.39
2022-12-29T23:01:12.364Z,7.34
2022-12-29T23:03:39.829Z,7.32
2022-12-29T23:06:09.064Z,7.44
2022-12-29T23:08:37.805Z,7.41
2022-12-29T23:11:07.927Z,7.62
2022-12-29T23:13:35.192Z,7.64
2022-12-29T23:16:01.860Z,7.67
2022-12-29T23:18:28.908Z,7.58
2022-12-29T23:20:55.532Z,7.63
2022-12-29T23:23:48.400Z,7.58
2022-12-29T23:26:18.974Z,7.72
2022-12-29T23:28:46.206Z,7.47
2022-12-29T23:31:13.408Z,7.57
2022-12-29T23:33:40.060Z,7.46
2022-12-29T23:36:07.179Z,7.39
2022-12-29T23:38:33.930Z,7.39
2022-12-29T23:41:00.461Z,7.37
2022-12-29T23:43:27.065Z,7.46
2022-12-29T23:45:53.598Z,7.35
2022-12-29T23:48:22.970Z,7.23
2022-12-29T23:50:52.948Z,7.08
2022-12-29T23:53:22.553Z,7.17
2022-12-29T23:55:54.110Z,7.26
2022-12-29T23:58:24.293Z,7.21
